createdAt,value
2022-09-20T00:03:51.105Z,98428.75
2022-09-20T00:07:54.661Z,98435.66
2022-09-20T00:11:56.935Z,98450.16
2022-09-20T00:15:59.730Z,98453.13
2022-09-20T00:20:01.949Z,98447.94
2022-09-20T00:24:04.390Z,98441.13
2022-09-20T00:28:07.245Z,98437.47
2022-09-20T00:32:09.301Z,98434.25
2022-09-20T00:36:11.474Z,98428.25
2022-09-20T00:40:17.637Z,98432.94
2022-09-20T00:44:45.566Z,98435.09
2022-09-20T00:48:49.439Z,98431.41
2022-09-20T00:52:58.401Z,98429.78
2022-09-20T00:57:00.819Z,98431.25
2022-09-20T01:01:12.350Z,98429.22
2022-09-20T01:05:17.251Z,98430.63
2022-09-20T01:09:19.637Z,98427.19
2022-09-20T01:13:21.836Z,98428.91
2022-09-20T01:17:27.580Z,98438.16
2022-09-20T01:21:30.222Z,98430.34
2022-09-20T01:25:54.219Z,98427.50
2022-09-20T01:30:26.050Z,98421.69
2022-09-20T01:34:36.533Z,98426.59
2022-09-20T01:38:50.766Z,98432.22
2022-09-20T01:43:07.586Z,98432.31
2022-09-20T01:47:41.869Z,98427.53
2022-09-20T01:52:13.201Z,98432.03
2022-09-20T01:56:21.107Z,98428.34
2022-09-20T02:00:26.602Z,98436.38
2022-09-20T02:04:45.965Z,98432.91
2022-09-20T02:09:45.917Z,98427.59
2022-09-20T02:14:22.003Z,98421.44
2022-09-20T02:19:01.678Z,98421.75
2022-09-20T02:23:33.330Z,98423.31
2022-09-20T02:27:56.646Z,98422.53
2022-09-20T02:32:13.121Z,98419.88
2022-09-20T02:36:21.226Z,98419.06
2022-09-20T02:41:02.160Z,98417.72
2022-09-20T02:45:21.237Z,98423.59
2022-09-20T02:49:52.309Z,98422.53
2022-09-20T02:54:19.293Z,98416.94
2022-09-20T02:58:36.568Z,98417.97
2022-09-20T03:03:23.146Z,98426.22
2022-09-20T03:08:10.205Z,98415.81
2022-09-20T03:12:31.600Z,98412.28
2022-09-20T03:16:43.658Z,98409.16
2022-09-20T03:21:49.661Z,98418.38
2022-09-20T03:26:13.633Z,98415.19
2022-09-20T03:30:34.287Z,98420.94
2022-09-20T03:35:03.970Z,98421.06
2022-09-20T03:39:35.236Z,98420.00
2022-09-20T03:50:01.108Z,98420.25
2022-09-20T03:54:15.246Z,98417.75
2022-09-20T03:58:30.425Z,98424.66
2022-09-20T04:02:56.898Z,98428.91
2022-09-20T04:07:15.022Z,98449.72
2022-09-20T04:11:26.236Z,98437.56
2022-09-20T04:15:46.540Z,98434.16
2022-09-20T04:20:15.671Z,98437.41
2022-09-20T04:24:18.332Z,98435.72
2022-09-20T04:28:48.734Z,98451.59
2022-09-20T04:33:03.596Z,98448.25
2022-09-20T04:37:26.438Z,98436.38
2022-09-20T04:42:07.123Z,98430.50
2022-09-20T04:46:21.350Z,98448.91
2022-09-20T04:50:26.854Z,98451.81
2022-09-20T04:55:10.335Z,98451.03
2022-09-20T04:59:58.128Z,98455.00
2022-09-20T05:04:12.887Z,98455.88
2022-09-20T05:08:42.995Z,98449.97
2022-09-20T05:12:54.683Z,98460.50
2022-09-20T05:17:09.351Z,98464.72
2022-09-20T05:21:46.556Z,98462.91
2022-09-20T05:25:58.537Z,98468.78
2022-09-20T05:30:05.135Z,98477.66
2022-09-20T05:34:39.617Z,98468.13
2022-09-20T05:38:49.129Z,98469.72
2022-09-20T05:43:14.654Z,98477.31
2022-09-20T05:47:24.761Z,98476.56
2022-09-20T05:51:40.268Z,98487.66
2022-09-20T05:56:19.787Z,98491.53
2022-09-20T06:00:27.853Z,98484.34
2022-09-20T06:04:42.690Z,98485.81
2022-09-20T06:08:54.849Z,98491.19
2022-09-20T06:13:24.925Z,98490.75
2022-09-20T06:17:43.439Z,98500.06
2022-09-20T06:22:03.051Z,98501.34
2022-09-20T06:26:17.414Z,98498.91
2022-09-20T06:30:50.368Z,98504.72
2022-09-20T06:34:53.561Z,98497.69
2022-09-20T06:39:38.309Z,98499.28
2022-09-20T06:43:41.133Z,98490.31
2022-09-20T06:47:43.407Z,98498.88
2022-09-20T06:51:45.684Z,98498.00
2022-09-20T06:55:48.033Z,98496.09
2022-09-20T06:59:50.117Z,98498.28
2022-09-20T07:03:52.831Z,98501.38
2022-09-20T07:07:58.963Z,98506.94
2022-09-20T07:12:01.074Z,98507.84
2022-09-20T07:16:05.703Z,98514.00
2022-09-20T07:20:08.188Z,98512.88
2022-09-20T07:24:10.492Z,98516.25
2022-09-20T07:28:17.717Z,98520.47
2022-09-20T07:32:19.975Z,98517.94
2022-09-20T07:36:23.458Z,98517.56
2022-09-20T07:40:27.584Z,98520.22
2022-09-20T07:44:29.678Z,98515.72
2022-09-20T07:48:34.512Z,98517.44
2022-09-20T07:52:36.505Z,98534.91
2022-09-20T07:56:38.772Z,98539.44
2022-09-20T08:00:40.928Z,98546.91
2022-09-20T08:04:43.584Z,98544.88
2022-09-20T08:08:45.849Z,98563.63
2022-09-20T08:17:11.619Z,98562.88
2022-09-20T08:21:14.737Z,98571.78
2022-09-20T08:25:17.943Z,98574.31
2022-09-20T08:29:20.437Z,98567.84
2022-09-20T08:33:22.415Z,98572.03
2022-09-20T08:37:24.492Z,98568.22
2022-09-20T08:41:57.049Z,98568.53
2022-09-20T08:46:05.441Z,98566.81
2022-09-20T08:50:11.756Z,98563.50
2022-09-20T08:54:16.439Z,98563.47
2022-09-20T08:58:20.150Z,98571.44
2022-09-20T09:02:22.857Z,98561.59
2022-09-20T09:06:25.168Z,98568.41
2022-09-20T09:10:43.389Z,98567.31
2022-09-20T09:14:50.937Z,98555.06
2022-09-20T09:18:53.632Z,98556.78
2022-09-20T09:23:04.127Z,98549.19
2022-09-20T09:27:19.630Z,98554.09
2022-09-20T09:31:26.507Z,98557.09
2022-09-20T09:35:31.781Z,98554.03
2022-09-20T09:39:38.368Z,98556.22
2022-09-20T09:43:40.856Z,98550.63
2022-09-20T09:47:42.857Z,98551.59
2022-09-20T09:52:33.264Z,98540.09
2022-09-20T09:56:47.397Z,98547.06
2022-09-20T10:00:50.236Z,98540.19
2022-09-20T10:05:04.782Z,98540.44
2022-09-20T10:09:23.079Z,98537.94
2022-09-20T10:13:36.022Z,98529.94
2022-09-20T10:18:00.480Z,98526.38
2022-09-20T10:22:38.328Z,98527.56
2022-09-20T10:27:02.480Z,98520.97
2022-09-20T10:31:30.973Z,98524.38
2022-09-20T10:35:56.068Z,98517.53
2022-09-20T10:40:20.847Z,98516.91
2022-09-20T10:44:50.277Z,98520.69
2022-09-20T10:49:04.006Z,98513.81
2022-09-20T10:53:36.763Z,98512.75
2022-09-20T10:58:01.574Z,98511.66
2022-09-20T11:02:38.351Z,98520.44
2022-09-20T11:10:58.245Z,98504.13
2022-09-20T11:15:08.343Z,98503.47
2022-09-20T11:19:10.310Z,98492.53
2022-09-20T11:23:48.459Z,98499.09
2022-09-20T11:28:04.603Z,98499.53
2022-09-20T11:32:18.302Z,98494.59
2022-09-20T11:36:27.727Z,98489.41
2022-09-20T11:40:43.380Z,98482.53
2022-09-20T11:44:46.145Z,98486.03
2022-09-20T11:48:58.717Z,98479.94
2022-09-20T11:53:36.838Z,98472.56
2022-09-20T11:57:39.842Z,98466.59
2022-09-20T12:01:44.345Z,98463.44
2022-09-20T12:05:47.331Z,98466.22
2022-09-20T12:10:19.789Z,98458.41
2022-09-20T12:14:25.618Z,98452.38
2022-09-20T12:18:35.327Z,98449.66
2022-09-20T12:22:37.545Z,98442.84
2022-09-20T12:26:43.188Z,98440.91
2022-09-20T12:30:45.527Z,98444.66
2022-09-20T12:34:47.533Z,98435.69
2022-09-20T12:39:19.103Z,98430.19
2022-09-20T12:43:24.431Z,98438.25
2022-09-20T12:47:33.493Z,98415.31
2022-09-20T12:51:55.954Z,98420.16
2022-09-20T12:56:07.664Z,98411.75
2022-09-20T13:00:40.718Z,98403.41
2022-09-20T13:04:57.624Z,98405.53
2022-09-20T13:09:09.196Z,98399.53
2022-09-20T13:13:20.856Z,98401.44
2022-09-20T13:17:31.059Z,98398.44
2022-09-20T13:21:43.255Z,98394.66
2022-09-20T13:25:45.555Z,98384.72
2022-09-20T13:29:47.681Z,98382.28
2022-09-20T13:33:50.223Z,98383.69
2022-09-20T13:37:59.317Z,98376.00
2022-09-20T13:42:11.516Z,98378.44
2022-09-20T13:46:17.982Z,98372.41
2022-09-20T13:50:33.024Z,98371.69
2022-09-20T13:54:36.020Z,98382.28
2022-09-20T13:58:38.750Z,98363.19
2022-09-20T14:02:42.998Z,98376.44
2022-09-20T14:06:46.576Z,98370.19
2022-09-20T14:11:03.407Z,98376.66
2022-09-20T14:15:09.519Z,98368.09
2022-09-20T14:19:15.616Z,98370.53
2022-09-20T14:23:26.796Z,98367.03
2022-09-20T14:27:31.692Z,98371.69
2022-09-20T14:31:35.033Z,98368.00
2022-09-20T14:35:37.646Z,98360.09
2022-09-20T14:39:51.910Z,98358.72
2022-09-20T14:44:00.790Z,98360.34
2022-09-20T14:48:11.085Z,98360.63
2022-09-20T14:52:26.847Z,98358.13
2022-09-20T14:56:37.233Z,98362.25
2022-09-20T15:01:05.355Z,98364.91
2022-09-20T15:05:19.053Z,98372.25
2022-09-20T15:09:23.148Z,98369.03
2022-09-20T15:13:25.706Z,98370.97
2022-09-20T15:17:27.630Z,98371.94
2022-09-20T15:21:30.573Z,98369.06
2022-09-20T15:25:33.773Z,98365.47
2022-09-20T15:29:36.445Z,98372.50
2022-09-20T15:33:38.622Z,98365.00
2022-09-20T15:37:43.150Z,98373.16
2022-09-20T15:41:46.817Z,98364.72
2022-09-20T15:45:54.203Z,98373.78
2022-09-20T15:49:56.877Z,98376.09
2022-09-20T15:54:01.789Z,98377.19
2022-09-20T15:58:04.384Z,98375.97
2022-09-20T16:02:08.770Z,98375.25
2022-09-20T16:06:11.766Z,98377.41
2022-09-20T16:10:14.107Z,98373.31
2022-09-20T16:14:16.530Z,98371.81
2022-09-20T16:18:37.702Z,98377.16
2022-09-20T16:22:41.762Z,98368.66
2022-09-20T16:26:44.344Z,98367.41
2022-09-20T16:30:57.022Z,98369.59
2022-09-20T16:35:01.574Z,98374.75
2022-09-20T16:39:04.116Z,98371.47
2022-09-20T16:43:08.811Z,98369.88
2022-09-20T16:47:18.176Z,98378.63
2022-09-20T16:51:26.063Z,98376.25
2022-09-20T16:55:28.094Z,98393.47
2022-09-20T16:59:31.518Z,98388.41
2022-09-20T17:03:35.182Z,98387.84
2022-09-20T17:07:37.615Z,98391.09
2022-09-20T17:11:49.338Z,98386.97
2022-09-20T17:16:03.600Z,98387.31
2022-09-20T17:20:07.934Z,98392.75
2022-09-20T17:24:10.451Z,98394.69
2022-09-20T17:28:13.735Z,98390.34
2022-09-20T17:32:16.844Z,98391.03
2022-09-20T17:36:21.525Z,98393.97
2022-09-20T17:40:23.684Z,98400.97
2022-09-20T17:44:25.802Z,98398.13
2022-09-20T17:48:28.025Z,98406.72
2022-09-20T17:52:32.285Z,98412.72
2022-09-20T17:56:35.649Z,98418.91
2022-09-20T18:00:38.909Z,98415.72
2022-09-20T18:04:42.695Z,98413.16
2022-09-20T18:08:48.511Z,98416.34
2022-09-20T18:12:52.194Z,98416.63
2022-09-20T18:16:58.349Z,98426.28
2022-09-20T18:21:00.651Z,98428.94
2022-09-20T18:25:04.089Z,98430.53
2022-09-20T18:29:12.390Z,98448.25
2022-09-20T18:33:17.202Z,98449.16
2022-09-20T18:37:19.295Z,98452.00
2022-09-20T18:41:25.623Z,98463.97
2022-09-20T18:45:27.626Z,98467.13
2022-09-20T18:49:30.739Z,98467.88
2022-09-20T18:53:37.807Z,98477.78
2022-09-20T18:57:40.072Z,98492.78
2022-09-20T19:01:56.336Z,98491.16
2022-09-20T19:06:07.000Z,98497.38
2022-09-20T19:10:25.055Z,98505.03
2022-09-20T19:14:46.094Z,98516.03
2022-09-20T19:19:14.769Z,98518.06
2022-09-20T19:23:32.075Z,98524.22
2022-09-20T19:27:35.108Z,98528.91
2022-09-20T19:31:37.710Z,98529.59
2022-09-20T19:35:49.373Z,98540.16
2022-09-20T19:39:54.469Z,98544.56
2022-09-20T19:44:10.270Z,98540.16
2022-09-20T19:48:28.310Z,98551.22
2022-09-20T19:52:32.166Z,98559.59
2022-09-20T19:56:48.276Z,98556.78
2022-09-20T20:00:53.889Z,98565.03
2022-09-20T20:05:33.114Z,98564.53
2022-09-20T20:09:59.269Z,98570.22
2022-09-20T20:14:44.666Z,98576.38
2022-09-20T20:19:13.633Z,98575.34
2022-09-20T20:23:41.469Z,98578.75
2022-09-20T20:27:43.760Z,98589.19
2022-09-20T20:31:47.273Z,98589.97
2022-09-20T20:36:01.662Z,98592.16
2022-09-20T20:40:05.306Z,98589.66
2022-09-20T20:44:07.347Z,98603.09
2022-09-20T20:48:09.392Z,98602.09
2022-09-20T20:52:11.428Z,98600.13
2022-09-20T20:56:29.798Z,98604.00
2022-09-20T21:00:35.243Z,98602.16
2022-09-20T21:04:39.988Z,98609.06
2022-09-20T21:08:49.034Z,98613.28
2022-09-20T21:12:56.120Z,98617.19
2022-09-20T21:16:58.569Z,98612.41
2022-09-20T21:21:02.687Z,98618.72
2022-09-20T21:25:09.852Z,98617.66
2022-09-20T21:29:15.772Z,98626.81
2022-09-20T21:33:21.302Z,98620.47
2022-09-20T21:37:23.654Z,98621.56
2022-09-20T21:41:31.021Z,98623.56
2022-09-20T21:45:35.039Z,98622.78
2022-09-20T21:49:37.458Z,98619.69
2022-09-20T21:53:40.376Z,98626.09
2022-09-20T21:57:42.602Z,98632.53
2022-09-20T22:01:44.707Z,98626.78
2022-09-20T22:05:47.527Z,98627.94
2022-09-20T22:09:49.487Z,98628.63
2022-09-20T22:13:53.767Z,98626.28
2022-09-20T22:17:56.633Z,98630.91
2022-09-20T22:21:58.822Z,98635.22
2022-09-20T22:26:07.221Z,98637.47
2022-09-20T22:30:10.482Z,98636.50
2022-09-20T22:34:21.058Z,98645.22
2022-09-20T22:38:23.063Z,98651.63
2022-09-20T22:42:24.998Z,98641.16
2022-09-20T22:46:29.668Z,98653.56
2022-09-20T22:50:31.742Z,98650.31
2022-09-20T22:54:35.591Z,98647.19
2022-09-20T22:58:43.290Z,98638.91
2022-09-20T23:02:45.252Z,98657.66
2022-09-20T23:07:02.583Z,98647.25
2022-09-20T23:11:06.265Z,98641.91
2022-09-20T23:15:11.665Z,98656.25
2022-09-20T23:19:13.991Z,98651.19
2022-09-20T23:23:23.623Z,98641.28
2022-09-20T23:27:25.619Z,98645.88
2022-09-20T23:31:29.006Z,98637.03
2022-09-20T23:35:31.125Z,98642.97
2022-09-20T23:39:33.465Z,98647.41
2022-09-20T23:43:37.202Z,98645.53
2022-09-20T23:47:39.472Z,98649.56
2022-09-20T23:51:41.504Z,98647.97
2022-09-20T23:55:43.500Z,98651.19
2022-09-20T23:59:45.447Z,98647.19
